createdAt,value
2023-01-13T00:00:26.644Z,98054.03
2023-01-13T00:02:54.341Z,98057.69
2023-01-13T00:05:22.147Z,98066.00
2023-01-13T00:07:49.801Z,98072.31
2023-01-13T00:10:17.470Z,98079.25
2023-01-13T00:12:45.173Z,98077.63
2023-01-13T00:15:13.532Z,98087.03
2023-01-13T00:17:41.139Z,98091.38
2023-01-13T00:20:10.568Z,98105.28
2023-01-13T00:22:38.231Z,98110.56
2023-01-13T00:25:06.793Z,98114.91
2023-01-13T00:27:34.677Z,98121.84
2023-01-13T00:30:03.319Z,98130.47
2023-01-13T00:32:31.111Z,98130.28
2023-01-13T00:34:59.120Z,98135.44
2023-01-13T00:37:27.222Z,98148.88
2023-01-13T00:39:54.861Z,98154.19
2023-01-13T00:42:41.119Z,98153.34
2023-01-13T00:45:09.073Z,98177.06
2023-01-13T00:47:36.682Z,98181.38
2023-01-13T00:50:04.664Z,98186.69
2023-01-13T00:52:33.080Z,98198.13
2023-01-13T00:55:01.060Z,98197.94
2023-01-13T00:57:28.689Z,98207.41
2023-01-13T00:59:56.478Z,98210.25
2023-01-13T01:02:24.196Z,98225.16
2023-01-13T01:04:51.955Z,98233.94
2023-01-13T01:07:19.571Z,98238.28
2023-01-13T01:09:47.224Z,98246.06
2023-01-13T01:12:14.858Z,98250.53
2023-01-13T01:14:42.509Z,98255.19
2023-01-13T01:17:10.125Z,98266.00
2023-01-13T01:19:38.922Z,98268.47
2023-01-13T01:22:06.706Z,98272.13
2023-01-13T01:24:34.389Z,98276.41
2023-01-13T01:27:02.119Z,98283.56
2023-01-13T01:29:29.783Z,98282.56
2023-01-13T01:31:59.222Z,98302.81
2023-01-13T01:34:27.089Z,98305.28
2023-01-13T01:36:54.744Z,98309.44
2023-01-13T01:39:22.433Z,98314.41
2023-01-13T01:42:08.991Z,98327.50
2023-01-13T01:44:42.681Z,98338.94
2023-01-13T01:47:14.009Z,98334.47
2023-01-13T01:49:43.542Z,98337.97
2023-01-13T01:52:16.819Z,98347.56
2023-01-13T01:54:48.162Z,98353.69
2023-01-13T01:57:26.778Z,98364.31
2023-01-13T01:59:54.908Z,98379.94
2023-01-13T02:02:23.024Z,98379.47
2023-01-13T02:04:53.586Z,98390.91
2023-01-13T02:07:25.491Z,98402.34
2023-01-13T02:09:55.941Z,98423.59
2023-01-13T02:12:34.843Z,98428.41
2023-01-13T02:15:15.391Z,98441.50
2023-01-13T02:17:55.105Z,98450.28
2023-01-13T02:20:31.832Z,98453.81
2023-01-13T02:24:02.909Z,98455.78
2023-01-13T02:26:42.245Z,98464.41
2023-01-13T02:30:03.311Z,98481.31
2023-01-13T02:32:55.751Z,98493.94
2023-01-13T02:35:27.475Z,98503.38
2023-01-13T02:37:57.485Z,98514.69
2023-01-13T02:40:37.061Z,98527.13
2023-01-13T02:43:29.543Z,98537.75
2023-01-13T02:46:20.122Z,98545.88
2023-01-13T02:48:50.198Z,98552.03
2023-01-13T02:51:22.332Z,98558.63
2023-01-13T02:54:16.671Z,98575.44
2023-01-13T02:56:48.554Z,98576.41
2023-01-13T02:59:16.901Z,98587.84
2023-01-13T03:01:45.818Z,98596.66
2023-01-13T03:04:46.639Z,98608.56
2023-01-13T03:07:57.373Z,98631.66
2023-01-13T03:10:32.997Z,98637.78
2023-01-13T03:13:42.870Z,98644.41
2023-01-13T03:16:29.308Z,98645.72
2023-01-13T03:19:15.318Z,98658.00
2023-01-13T03:21:53.746Z,98664.63
2023-01-13T03:24:21.369Z,98669.94
2023-01-13T03:27:09.900Z,98677.06
2023-01-13T03:29:46.312Z,98682.53
2023-01-13T03:32:24.535Z,98690.50
2023-01-13T03:34:58.286Z,98694.97
2023-01-13T03:37:33.997Z,98698.63
2023-01-13T03:40:07.761Z,98701.59
2023-01-13T03:42:38.479Z,98717.66
2023-01-13T03:45:19.690Z,98712.97
2023-01-13T03:48:16.378Z,98724.47
2023-01-13T03:51:07.060Z,98736.03
2023-01-13T03:53:47.689Z,98741.03
2023-01-13T03:56:41.483Z,98748.69
2023-01-13T03:59:15.544Z,98751.03
2023-01-13T04:02:09.476Z,98769.78
2023-01-13T04:04:50.669Z,98780.06
2023-01-13T04:07:46.590Z,98788.88
2023-01-13T04:10:19.963Z,98791.34
2023-01-13T04:13:03.199Z,98808.09
2023-01-13T04:15:41.283Z,98814.25
2023-01-13T04:18:11.796Z,98828.38
2023-01-13T04:20:40.224Z,98835.47
2023-01-13T04:23:08.859Z,98851.56
2023-01-13T04:25:36.778Z,98852.41
2023-01-13T04:28:04.701Z,98848.91
2023-01-13T04:30:32.383Z,98862.19
2023-01-13T04:33:00.008Z,98871.81
2023-01-13T04:35:27.782Z,98880.75
2023-01-13T04:37:55.293Z,98888.72
2023-01-13T04:40:22.923Z,98895.69
2023-01-13T04:42:50.485Z,98905.66
2023-01-13T04:45:18.121Z,98919.75
2023-01-13T04:47:45.715Z,98934.69
2023-01-13T04:50:13.727Z,98936.34
2023-01-13T04:52:41.325Z,98937.19
2023-01-13T04:55:10.545Z,98950.31
2023-01-13T04:57:38.253Z,98966.22
2023-01-13T05:00:07.521Z,98966.09
2023-01-13T05:02:35.078Z,98969.56
2023-01-13T05:05:02.762Z,98979.06
2023-01-13T05:07:30.707Z,98979.06
2023-01-13T05:09:58.293Z,98985.03
2023-01-13T05:12:44.468Z,98982.38
2023-01-13T05:15:32.611Z,98995.66
2023-01-13T05:18:01.312Z,99015.06
2023-01-13T05:20:28.879Z,99012.41
2023-01-13T05:23:15.439Z,99023.84
2023-01-13T05:25:44.529Z,99023.72
2023-01-13T05:28:12.247Z,99031.53
2023-01-13T05:30:42.730Z,99029.72
2023-01-13T05:33:11.512Z,99037.53
2023-01-13T05:35:41.088Z,99044.66
2023-01-13T05:38:09.285Z,99045.50
2023-01-13T05:40:59.044Z,99055.28
2023-01-13T05:43:27.907Z,99058.22
2023-01-13T05:46:08.145Z,99064.16
2023-01-13T05:48:38.594Z,99071.34
2023-01-13T05:51:08.383Z,99082.03
2023-01-13T05:53:36.680Z,99087.22
2023-01-13T05:56:06.219Z,99097.59
2023-01-13T05:58:34.359Z,99116.31
2023-01-13T06:01:07.834Z,99110.19
2023-01-13T06:03:36.543Z,99117.44
2023-01-13T06:06:04.826Z,99127.69
2023-01-13T06:08:32.931Z,99122.66
2023-01-13T06:11:00.618Z,99150.16
2023-01-13T06:13:28.220Z,99159.66
2023-01-13T06:15:57.797Z,99168.44
2023-01-13T06:18:26.096Z,99184.06
2023-01-13T06:20:53.835Z,99190.91
2023-01-13T06:23:21.495Z,99199.56
2023-01-13T06:26:07.114Z,99204.88
2023-01-13T06:28:35.027Z,99200.53
2023-01-13T06:31:06.573Z,99200.81
2023-01-13T06:33:39.159Z,99210.22
2023-01-13T06:36:19.397Z,99221.38
2023-01-13T06:38:50.038Z,99227.09
2023-01-13T06:41:38.635Z,99231.19
2023-01-13T06:44:06.626Z,99237.88
2023-01-13T06:46:35.197Z,99245.13
2023-01-13T06:49:02.998Z,99238.56
2023-01-13T06:51:30.612Z,99246.97
2023-01-13T06:53:58.225Z,99255.34
2023-01-13T06:56:25.769Z,99264.53
2023-01-13T06:58:53.662Z,99275.31
2023-01-13T07:01:21.384Z,99276.41
2023-01-13T07:03:49.062Z,99276.56
2023-01-13T07:06:16.643Z,99285.75
2023-01-13T07:08:44.260Z,99292.31
2023-01-13T07:11:11.827Z,99294.13
2023-01-13T07:13:57.886Z,99301.38
2023-01-13T07:16:28.176Z,99306.66
2023-01-13T07:18:56.937Z,99313.66
2023-01-13T07:21:24.532Z,99325.09
2023-01-13T07:23:52.146Z,99335.53
2023-01-13T07:26:19.888Z,99331.38
2023-01-13T07:28:47.514Z,99351.88
2023-01-13T07:31:18.480Z,99345.03
2023-01-13T07:33:46.557Z,99355.91
2023-01-13T07:36:14.937Z,99367.59
2023-01-13T07:38:44.632Z,99380.28
2023-01-13T07:41:32.953Z,99385.03
2023-01-13T07:44:02.881Z,99399.53
2023-01-13T07:46:31.001Z,99411.09
2023-01-13T07:48:58.674Z,99408.56
2023-01-13T07:51:26.497Z,99407.59
2023-01-13T07:53:54.253Z,99411.50
2023-01-13T07:56:21.868Z,99416.44
2023-01-13T07:58:51.221Z,99423.81
2023-01-13T08:01:19.391Z,99434.88
2023-01-13T08:03:47.425Z,99442.28
2023-01-13T08:06:15.311Z,99451.25
2023-01-13T08:08:42.907Z,99450.00
2023-01-13T08:11:10.659Z,99460.31
2023-01-13T08:13:38.214Z,99464.38
2023-01-13T08:16:11.811Z,99471.06
2023-01-13T08:18:39.943Z,99473.59
2023-01-13T08:21:13.911Z,99482.50
2023-01-13T08:23:43.129Z,99482.81
2023-01-13T08:26:13.852Z,99484.59
2023-01-13T08:28:41.611Z,99499.69
2023-01-13T08:31:12.458Z,99502.59
2023-01-13T08:33:40.665Z,99512.53
2023-01-13T08:36:11.164Z,99508.06
2023-01-13T08:38:39.762Z,99517.38
2023-01-13T08:41:12.414Z,99523.09
2023-01-13T08:43:40.178Z,99519.88
2023-01-13T08:46:07.931Z,99525.28
2023-01-13T08:48:36.107Z,99533.22
2023-01-13T08:51:09.127Z,99544.56
2023-01-13T08:53:36.984Z,99554.75
2023-01-13T08:56:11.857Z,99561.34
2023-01-13T08:58:40.759Z,99568.78
2023-01-13T09:01:10.762Z,99568.34
2023-01-13T09:03:39.456Z,99578.31
2023-01-13T09:06:07.105Z,99583.06
2023-01-13T09:08:34.943Z,99578.06
2023-01-13T09:11:22.728Z,99573.06
2023-01-13T09:13:50.592Z,99590.25
2023-01-13T09:16:18.512Z,99591.66
2023-01-13T09:18:46.327Z,99596.00
2023-01-13T09:21:15.259Z,99596.69
2023-01-13T09:23:43.016Z,99607.03
2023-01-13T09:26:11.763Z,99613.06
2023-01-13T09:28:39.402Z,99623.25
2023-01-13T09:31:07.398Z,99622.16
2023-01-13T09:33:53.664Z,99637.81
2023-01-13T09:36:21.639Z,99647.16
2023-01-13T09:38:50.383Z,99657.25
2023-01-13T09:41:42.370Z,99676.97
2023-01-13T09:44:16.741Z,99671.00
2023-01-13T09:46:49.368Z,99688.34
2023-01-13T09:49:24.189Z,99687.63
2023-01-13T09:51:59.116Z,99700.63
2023-01-13T09:54:52.017Z,99700.22
2023-01-13T09:57:21.465Z,99700.38
2023-01-13T09:59:49.423Z,99709.06
2023-01-13T10:02:55.586Z,99716.03
2023-01-13T10:05:36.794Z,99713.38
2023-01-13T10:08:21.037Z,99719.81
2023-01-13T10:10:51.637Z,99731.16
2023-01-13T10:13:22.779Z,99737.75
2023-01-13T10:15:56.679Z,99745.13
2023-01-13T10:18:33.226Z,99754.78
2023-01-13T10:21:31.775Z,99759.28
2023-01-13T10:24:17.997Z,99757.19
2023-01-13T10:26:54.764Z,99765.59
2023-01-13T10:29:28.441Z,99768.81
2023-01-13T10:31:58.162Z,99775.25
2023-01-13T10:34:27.768Z,99782.81
2023-01-13T10:37:00.318Z,99788.84
2023-01-13T10:39:28.656Z,99791.94
2023-01-13T10:42:04.696Z,99796.41
2023-01-13T10:44:32.452Z,99804.25
2023-01-13T10:47:00.216Z,99812.09
2023-01-13T10:49:37.091Z,99818.88
2023-01-13T10:52:25.586Z,99819.94
2023-01-13T10:54:55.227Z,99832.00
2023-01-13T10:57:27.816Z,99840.66
2023-01-13T10:59:56.454Z,99846.81
2023-01-13T11:02:33.089Z,99851.22
2023-01-13T11:05:22.951Z,99846.06
2023-01-13T11:07:54.585Z,99861.84
2023-01-13T11:10:24.355Z,99864.94
2023-01-13T11:13:13.850Z,99860.16
2023-01-13T11:16:00.177Z,99865.91
2023-01-13T11:19:02.493Z,99877.28
2023-01-13T11:21:38.104Z,99876.34
2023-01-13T11:24:21.660Z,99878.69
2023-01-13T11:27:01.971Z,99891.19
2023-01-13T11:29:41.643Z,99901.22
2023-01-13T11:32:20.153Z,99904.44
2023-01-13T11:35:02.257Z,99902.06
2023-01-13T11:37:36.317Z,99903.56
2023-01-13T11:40:12.102Z,99909.09
2023-01-13T11:43:00.072Z,99920.91
2023-01-13T11:45:42.494Z,99920.06
2023-01-13T11:48:17.701Z,99924.53
2023-01-13T11:51:05.521Z,99936.09
2023-01-13T11:54:00.924Z,99942.13
2023-01-13T11:56:43.667Z,99942.38
2023-01-13T11:59:35.592Z,99948.38
2023-01-13T12:02:18.612Z,99959.31
2023-01-13T12:05:06.721Z,99970.41
2023-01-13T12:07:52.758Z,99968.47
2023-01-13T12:10:40.792Z,99967.09
2023-01-13T12:13:14.519Z,99985.56
2023-01-13T12:16:03.279Z,99983.22
2023-01-13T12:19:16.239Z,99987.78
2023-01-13T12:22:23.715Z,99994.84
2023-01-13T12:25:02.873Z,100001.34
2023-01-13T12:27:55.519Z,100003.69
2023-01-13T12:30:37.220Z,100007.56
2023-01-13T12:33:42.504Z,100017.16
2023-01-13T12:36:26.990Z,100011.47
2023-01-13T12:39:04.042Z,100014.09
2023-01-13T12:42:30.030Z,100019.56
2023-01-13T12:45:12.924Z,100021.53
2023-01-13T12:47:43.731Z,100026.28
2023-01-13T12:50:37.531Z,100036.09
2023-01-13T12:53:29.663Z,100043.50
2023-01-13T12:56:40.279Z,100035.00
2023-01-13T12:59:17.558Z,100044.22
2023-01-13T13:01:47.367Z,100062.56
2023-01-13T13:04:20.106Z,100054.75
2023-01-13T13:07:08.752Z,100065.63
2023-01-13T13:09:55.455Z,100079.97
2023-01-13T13:13:09.305Z,100085.75
2023-01-13T13:15:37.286Z,100079.09
2023-01-13T13:18:17.461Z,100084.34
2023-01-13T13:20:57.966Z,100090.75
2023-01-13T13:23:37.972Z,100098.56
2023-01-13T13:26:36.901Z,100098.66
2023-01-13T13:29:19.712Z,100099.22
2023-01-13T13:31:47.322Z,100097.09
2023-01-13T13:34:32.760Z,100101.06
2023-01-13T13:37:09.066Z,100104.56
2023-01-13T13:40:01.164Z,100097.97
2023-01-13T13:42:54.853Z,100104.00
2023-01-13T13:45:44.192Z,100119.41
2023-01-13T13:48:26.865Z,100120.50
2023-01-13T13:51:00.263Z,100122.16
2023-01-13T13:53:38.954Z,100124.69
2023-01-13T13:56:18.004Z,100131.66
2023-01-13T13:58:47.947Z,100135.13
2023-01-13T14:01:30.195Z,100130.34
2023-01-13T14:04:22.249Z,100142.25
2023-01-13T14:07:02.366Z,100139.28
2023-01-13T14:09:41.106Z,100148.34
2023-01-13T14:12:23.007Z,100151.44
2023-01-13T14:14:51.413Z,100148.88
2023-01-13T14:17:24.752Z,100150.84
2023-01-13T14:19:58.352Z,100153.63
2023-01-13T14:22:26.858Z,100158.00
2023-01-13T14:24:58.529Z,100152.94
2023-01-13T14:27:28.045Z,100155.72
2023-01-13T14:29:59.439Z,100148.41
2023-01-13T14:32:36.121Z,100151.75
2023-01-13T14:35:08.087Z,100155.75
2023-01-13T14:37:39.155Z,100164.13
2023-01-13T14:40:44.543Z,100168.00
2023-01-13T14:43:15.374Z,100162.63
2023-01-13T14:45:54.825Z,100166.03
2023-01-13T14:48:27.099Z,100158.97
2023-01-13T14:50:54.888Z,100168.53
2023-01-13T14:53:45.230Z,100178.25
2023-01-13T14:56:37.744Z,100180.47
2023-01-13T14:59:33.856Z,100170.09
2023-01-13T15:02:22.530Z,100170.34
2023-01-13T15:04:54.011Z,100182.16
2023-01-13T15:07:27.168Z,100185.34
2023-01-13T15:09:58.585Z,100175.91
2023-01-13T15:12:41.441Z,100179.94
2023-01-13T15:15:26.337Z,100182.94
2023-01-13T15:17:54.204Z,100183.09
2023-01-13T15:20:25.075Z,100176.66
2023-01-13T15:22:55.183Z,100182.69
2023-01-13T15:25:22.912Z,100177.53
2023-01-13T15:27:52.670Z,100173.56
2023-01-13T15:30:25.137Z,100171.28
2023-01-13T15:32:57.619Z,100176.22
2023-01-13T15:35:28.449Z,100181.31
2023-01-13T15:37:57.517Z,100191.56
2023-01-13T15:40:33.255Z,100198.34
2023-01-13T15:43:19.439Z,100203.91
2023-01-13T15:46:05.988Z,100214.16
2023-01-13T15:48:33.967Z,100225.13
2023-01-13T15:51:03.646Z,100231.25
2023-01-13T15:53:31.518Z,100232.72
2023-01-13T15:56:00.434Z,100236.97
2023-01-13T15:58:30.708Z,100249.25
2023-01-13T16:00:58.472Z,100252.63
2023-01-13T16:03:26.195Z,100259.63
2023-01-13T16:05:53.800Z,100268.91
2023-01-13T16:08:22.986Z,100269.31
2023-01-13T16:10:50.998Z,100275.09
2023-01-13T16:13:18.997Z,100279.19
2023-01-13T16:15:49.724Z,100278.84
2023-01-13T16:18:26.758Z,100285.72
2023-01-13T16:20:55.334Z,100282.81
2023-01-13T16:23:23.482Z,100282.56
2023-01-13T16:25:51.663Z,100290.66
2023-01-13T16:28:26.197Z,100309.38
2023-01-13T16:30:54.418Z,100303.34
2023-01-13T16:33:22.184Z,100309.13
2023-01-13T16:36:10.807Z,100300.19
2023-01-13T16:38:37.831Z,100288.47
2023-01-13T16:41:05.746Z,100291.13
2023-01-13T16:43:34.398Z,100279.63
2023-01-13T16:46:02.084Z,100270.47
2023-01-13T16:48:29.868Z,100269.72
2023-01-13T16:50:58.170Z,100267.16
2023-01-13T16:53:26.256Z,100267.31
2023-01-13T16:55:53.877Z,100266.56
2023-01-13T16:58:21.629Z,100278.94
2023-01-13T17:00:49.290Z,100283.22
2023-01-13T17:03:17.174Z,100298.84
2023-01-13T17:05:47.698Z,100297.47
2023-01-13T17:08:20.684Z,100313.94
2023-01-13T17:10:48.452Z,100309.06
2023-01-13T17:13:17.356Z,100316.41
2023-01-13T17:15:46.006Z,100319.22
2023-01-13T17:18:13.795Z,100325.59
2023-01-13T17:20:41.507Z,100329.19
2023-01-13T17:23:09.113Z,100334.38
2023-01-13T17:25:36.897Z,100334.28
2023-01-13T17:28:04.642Z,100330.66
2023-01-13T17:30:32.581Z,100330.38
2023-01-13T17:33:00.274Z,100339.69
2023-01-13T17:35:27.841Z,100335.88
2023-01-13T17:37:55.888Z,100340.97
2023-01-13T17:40:23.505Z,100346.03
2023-01-13T17:42:51.204Z,100350.16
2023-01-13T17:45:18.876Z,100347.28
2023-01-13T17:47:47.552Z,100347.91
2023-01-13T17:50:19.283Z,100349.38
2023-01-13T17:52:46.873Z,100357.94
2023-01-13T17:55:14.649Z,100360.28
2023-01-13T17:57:42.225Z,100374.03
2023-01-13T18:00:12.515Z,100373.69
2023-01-13T18:02:40.174Z,100374.31
2023-01-13T18:05:08.177Z,100372.28
2023-01-13T18:07:35.762Z,100379.28
2023-01-13T18:10:03.431Z,100380.88
2023-01-13T18:12:31.129Z,100377.25
2023-01-13T18:14:58.700Z,100358.59
2023-01-13T18:17:26.350Z,100354.13
2023-01-13T18:20:12.477Z,100347.97
2023-01-13T18:22:58.511Z,100354.44
2023-01-13T18:25:44.650Z,100352.00
2023-01-13T18:28:12.193Z,100361.06
2023-01-13T18:30:39.783Z,100351.41
2023-01-13T18:33:07.746Z,100348.88
2023-01-13T18:35:38.657Z,100344.53
2023-01-13T18:38:07.018Z,100338.38
2023-01-13T18:40:34.595Z,100337.66
2023-01-13T18:43:02.187Z,100338.50
2023-01-13T18:45:31.882Z,100336.69
2023-01-13T18:48:02.741Z,100333.94
2023-01-13T18:50:30.681Z,100331.38
2023-01-13T18:52:58.878Z,100328.72
2023-01-13T18:55:28.679Z,100334.78
2023-01-13T18:57:57.250Z,100331.16
2023-01-13T19:00:26.981Z,100330.31
2023-01-13T19:05:35.389Z,100339.84
2023-01-13T19:08:04.066Z,100352.28
2023-01-13T19:10:32.801Z,100350.47
2023-01-13T19:13:01.730Z,100343.56
2023-01-13T19:15:29.843Z,100340.16
2023-01-13T19:17:57.569Z,100338.50
2023-01-13T19:20:25.131Z,100330.53
2023-01-13T19:22:54.629Z,100334.03
2023-01-13T19:25:22.974Z,100339.47
2023-01-13T19:27:50.525Z,100337.88
2023-01-13T19:30:18.572Z,100329.09
2023-01-13T19:32:46.144Z,100325.69
2023-01-13T19:35:17.809Z,100321.34
2023-01-13T19:37:45.817Z,100313.50
2023-01-13T19:40:13.955Z,100304.00
2023-01-13T19:43:04.378Z,100300.47
2023-01-13T19:45:35.169Z,100291.81
2023-01-13T19:48:05.324Z,100288.75
2023-01-13T19:50:40.468Z,100280.06
2023-01-13T19:53:15.776Z,100267.16
2023-01-13T19:55:48.568Z,100253.28
2023-01-13T19:58:18.967Z,100246.41
2023-01-13T20:00:48.444Z,100228.72
2023-01-13T20:03:24.300Z,100224.47
2023-01-13T20:05:53.409Z,100228.56
2023-01-13T20:08:22.799Z,100225.84
2023-01-13T20:10:50.369Z,100229.31
2023-01-13T20:13:18.125Z,100228.25
2023-01-13T20:15:45.788Z,100231.63
2023-01-13T20:18:13.390Z,100241.28
2023-01-13T20:20:40.955Z,100242.88
2023-01-13T20:23:09.605Z,100258.50
2023-01-13T20:25:37.254Z,100265.28
2023-01-13T20:28:05.273Z,100260.72
2023-01-13T20:30:32.895Z,100254.56
2023-01-13T20:33:00.777Z,100238.66
2023-01-13T20:35:29.922Z,100243.34
2023-01-13T20:37:57.533Z,100244.41
2023-01-13T20:40:26.015Z,100237.56
2023-01-13T20:42:53.794Z,100227.19
2023-01-13T20:45:23.375Z,100218.38
2023-01-13T20:47:51.038Z,100208.88
2023-01-13T20:50:18.861Z,100210.03
2023-01-13T20:52:47.865Z,100209.41
2023-01-13T20:55:15.552Z,100207.81
2023-01-13T20:57:43.599Z,100206.16
2023-01-13T21:00:11.662Z,100218.44
2023-01-13T21:02:41.118Z,100218.19
2023-01-13T21:05:09.885Z,100224.88
2023-01-13T21:07:37.471Z,100227.06
2023-01-13T21:10:05.954Z,100225.63
2023-01-13T21:12:51.993Z,100213.75
2023-01-13T21:15:21.927Z,100212.94
2023-01-13T21:18:10.679Z,100200.28
2023-01-13T21:20:39.135Z,100194.66
2023-01-13T21:23:07.356Z,100188.38
2023-01-13T21:25:37.272Z,100168.84
2023-01-13T21:28:06.061Z,100161.03
2023-01-13T21:30:34.264Z,100156.56
2023-01-13T21:33:03.986Z,100145.22
2023-01-13T21:35:31.871Z,100146.78
2023-01-13T21:37:59.591Z,100149.44
2023-01-13T21:40:27.578Z,100138.00
2023-01-13T21:43:14.158Z,100132.81
2023-01-13T21:46:00.366Z,100120.66
2023-01-13T21:48:28.086Z,100116.31
2023-01-13T21:51:00.302Z,100111.84
2023-01-13T21:53:28.078Z,100111.84
2023-01-13T21:55:55.634Z,100098.47
2023-01-13T21:58:23.319Z,100096.66
2023-01-13T22:00:51.103Z,100117.25
2023-01-13T22:03:18.847Z,100117.38
2023-01-13T22:05:47.038Z,100123.53
2023-01-13T22:08:14.723Z,100118.22
2023-01-13T22:10:57.785Z,100117.25
2023-01-13T22:13:46.226Z,100112.56
2023-01-13T22:16:16.107Z,100101.72
2023-01-13T22:18:44.197Z,100098.81
2023-01-13T22:21:12.184Z,100108.22
2023-01-13T22:23:39.805Z,100105.47
2023-01-13T22:26:08.854Z,100100.91
2023-01-13T22:28:43.090Z,100098.00
2023-01-13T22:31:15.714Z,100085.47
2023-01-13T22:33:47.074Z,100051.97
2023-01-13T22:36:15.636Z,100047.50
2023-01-13T22:38:43.259Z,100049.06
2023-01-13T22:41:11.253Z,100038.06
2023-01-13T22:43:39.225Z,100036.25
2023-01-13T22:46:09.770Z,100029.41
2023-01-13T22:48:38.799Z,100022.66
2023-01-13T22:51:07.533Z,100020.38
2023-01-13T22:53:36.071Z,100011.69
2023-01-13T22:56:04.760Z,100000.25
2023-01-13T22:58:32.613Z,99986.78
2023-01-13T23:01:11.632Z,99985.53
2023-01-13T23:03:39.405Z,99990.00
2023-01-13T23:06:07.076Z,99965.69
2023-01-13T23:08:35.248Z,99956.41
2023-01-13T23:11:05.072Z,99952.44
2023-01-13T23:13:32.819Z,99951.00
2023-01-13T23:16:05.991Z,99940.63
2023-01-13T23:18:34.156Z,99939.91
2023-01-13T23:21:07.050Z,99935.47
2023-01-13T23:23:34.940Z,99931.94
2023-01-13T23:26:03.608Z,99924.88
2023-01-13T23:28:32.607Z,99916.91
2023-01-13T23:31:00.310Z,99908.97
2023-01-13T23:33:27.895Z,99906.31
2023-01-13T23:35:59.958Z,99889.44
2023-01-13T23:38:28.462Z,99878.00
2023-01-13T23:40:56.451Z,99868.25
2023-01-13T23:43:26.405Z,99847.75
2023-01-13T23:46:05.327Z,99849.44
2023-01-13T23:48:33.670Z,99840.66
2023-01-13T23:51:03.612Z,99833.66
2023-01-13T23:53:33.819Z,99827.41
2023-01-13T23:56:02.641Z,99824.78
2023-01-13T23:58:32.026Z,99814.28
